Forside
METAR-TAF:

METAR-TAF

Lufthavne :

Ube, Japan

Breddekreds: 33-57N, længdekreds: 131-15E, højde: 5 m

Aktuelle vejr

Denne rapport blev lavet for 34 minutter siden, kl. 08:00 UTC
Vind 18 kt fra vest
Temperatur 12°C
Fugtighed 40%
Tryk 1023 hPa
Sigt 10 km eller mere
Nogle få skyer i en højde af 3500 ft

METAR: RJDC 220800Z 27018KT 9999 FEW035 12/M01 Q1023

Tid: 17:34 (08:34 UTC)


TAF: fraværende

Vejrobservationer og prognoser fra mere end 4000 lufthavne (METAR og TAF).

De gule og røde prikker repræsenterer de meteorologiske stationer.

Flyt musen over at se navnet på stationen.

Så klik over at se vejr observationer og prognoser.

At skifte det kort: Klik på de grønne knapper med et sort kors for at zoome ind; på den grønne knap med en bindestreg for at zoome ud; eller på de grønne pile for tilstødende kort.


METAR-TAF: